Terminal Aerodrome Forecast
Issued by NWS

Home | Current Version | Previous Version | Graphics & Text | Print | Product List | Glossary On
Versions: 1 2 3 4 5 6 7 8 9 10 11 12 13 14 15 16 17 18 19 20 21 22 23 24 25 26 27 28 29
061
FTUS45 KGGW 262325
TAFOLF
TAF
KOLF 262325Z 2700/2724 15016KT P6SM SCT200
     FM270700 11007KT P6SM BKN110 WS020/18040KT
     FM271100 VRB06KT P6SM SCT120
     FM271800 28014KT P6SM BKN110=

USA.gov is the U.S. government's official web portal to all federal, state and local government web resources and services.